Terminal Aerodrome Forecast
Issued by NWS Charleston, WV

Current Version | Previous Version | Text Only | Print | Product List | Glossary Off
Versions: 1 2 3 4 5 6 7 8 9 10 11 12 13 14 15 16 17 18 19 20 21 22 23 24 25 26 27 28

000
FTUS41 KRLX 061735
TAFHTS
TAF
KHTS 061735Z 0618/0718 26005KT P6SM BKN025
     FM062000 22004KT P6SM BKN035
     FM062300 17005KT P6SM SCT035
     FM070300 18004KT 6SM BR SCT035
     FM070600 VRB03KT 3SM BR SCT200
     FM070800 VRB03KT 1SM BR SCT001 SCT200
     FM071200 VRB03KT 3SM BR SCT040
     FM071300 20006KT P6SM SCT040=

USA.gov is the U.S. government's official web portal to all federal, state and local government web resources and services.